Time;durP1;ratioP1;P1;durP2;ratioP2;P2;SDS_P1;SDS_P2;PMS_P1;PMS_P2;Temp;Humidity;BMP_temperature;BMP_pressure;BME280_temperature;BME280_humidity;BME280_pressure;Samples;Min_cycle;Max_cycle;Signal;HPM_P1;HPM_P2
2021/05/16 00:00:16;;;;;;;5.50;4.20;;;16.50;99.90;;;;;;5113812;28;20056;-70
2021/05/16 00:02:42;;;;;;;6.00;4.40;;;16.50;99.90;;;;;;5113819;28;20023;-71
2021/05/16 00:05:11;;;;;;;5.20;4.20;;;16.60;99.90;;;;;;5095292;28;20023;-71
2021/05/16 00:07:37;;;;;;;5.85;4.55;;;16.60;99.90;;;;;;5113321;28;20053;-72
2021/05/16 00:10:05;;;;;;;6.50;4.72;;;16.60;99.90;;;;;;5113678;28;20016;-72
2021/05/16 00:12:31;;;;;;;7.13;5.10;;;16.60;99.90;;;;;;5095212;28;20058;-71
2021/05/16 00:14:57;;;;;;;6.82;4.43;;;16.50;99.90;;;;;;5113526;28;20028;-73
2021/05/16 00:17:23;;;;;;;7.15;4.97;;;16.50;99.90;;;;;;5113603;28;20015;-71
2021/05/16 00:19:49;;;;;;;6.47;5.57;;;16.50;99.90;;;;;;5113816;28;20024;-71
2021/05/16 00:22:15;;;;;;;6.82;6.03;;;16.40;99.90;;;;;;5113600;28;20031;-71
2021/05/16 00:24:41;;;;;;;8.73;6.45;;;16.50;99.90;;;;;;5095112;28;20523;-71
2021/05/16 00:27:07;;;;;;;8.93;6.25;;;16.40;99.90;;;;;;5113464;28;20027;-71
2021/05/16 00:29:33;;;;;;;6.35;5.68;;;16.40;99.90;;;;;;5113475;28;20043;-71
2021/05/16 00:31:59;;;;;;;6.40;5.70;;;16.40;99.90;;;;;;5113477;28;20027;-72
2021/05/16 00:34:25;;;;;;;6.70;5.72;;;16.30;99.90;;;;;;5113418;28;20484;-71
2021/05/16 00:36:51;;;;;;;9.05;5.93;;;16.30;99.90;;;;;;5097870;28;20062;-72
2021/05/16 00:39:17;;;;;;;9.48;6.25;;;16.40;99.90;;;;;;5117560;28;20467;-72
2021/05/16 00:41:43;;;;;;;8.07;6.88;;;16.30;99.90;;;;;;5099284;28;20172;-72
2021/05/16 00:44:09;;;;;;;7.35;6.43;;;16.30;99.90;;;;;;5098979;28;20027;-72
2021/05/16 00:46:35;;;;;;;10.85;6.47;;;16.30;99.90;;;;;;5117172;28;20019;-71
2021/05/16 00:49:01;;;;;;;7.97;6.20;;;16.30;99.90;;;;;;5117375;28;20023;-72
2021/05/16 00:51:27;;;;;;;7.45;6.75;;;16.20;99.90;;;;;;5117382;28;20032;-72
2021/05/16 00:53:53;;;;;;;8.40;6.30;;;16.10;99.90;;;;;;5099073;28;20073;-71
2021/05/16 00:56:19;;;;;;;6.82;6.13;;;16.10;99.90;;;;;;5117253;28;20032;-71
2021/05/16 00:58:45;;;;;;;7.47;6.57;;;16.00;99.90;;;;;;5117200;28;20015;-72
2021/05/16 01:01:13;;;;;;;8.82;5.80;;;16.00;99.90;;;;;;5117208;28;20470;-72
2021/05/16 01:03:40;;;;;;;7.53;6.18;;;16.00;99.90;;;;;;5117065;28;20328;-71
2021/05/16 01:06:06;;;;;;;7.15;5.75;;;16.10;99.90;;;;;;5116818;28;20028;-71
2021/05/16 01:08:32;;;;;;;7.70;6.20;;;16.10;99.90;;;;;;5117010;28;20027;-72
2021/05/16 01:10:58;;;;;;;8.65;6.18;;;16.10;99.90;;;;;;5116951;28;20020;-72
2021/05/16 01:13:26;;;;;;;6.53;5.85;;;16.10;99.90;;;;;;5116525;28;20083;-72
2021/05/16 01:15:52;;;;;;;8.70;5.93;;;16.10;99.90;;;;;;5116893;28;20110;-72
2021/05/16 01:18:18;;;;;;;9.90;5.70;;;16.10;99.90;;;;;;5098487;28;20447;-72
2021/05/16 01:20:47;;;;;;;6.85;6.00;;;16.10;99.90;;;;;;5098502;28;20024;-72
2021/05/16 01:23:20;;;;;;;8.25;6.97;;;16.00;99.90;;;;;;5116702;28;20023;-71
2021/05/16 01:25:48;;;;;;;7.50;5.93;;;16.10;99.90;;;;;;5098428;28;20055;-72
2021/05/16 01:28:18;;;;;;;6.63;5.93;;;16.10;99.90;;;;;;5116333;28;20456;-72
2021/05/16 01:30:45;;;;;;;7.28;6.40;;;16.10;99.90;;;;;;5098261;28;20019;-72
2021/05/16 01:33:12;;;;;;;8.95;8.00;;;16.10;99.90;;;;;;5116606;28;20019;-71
2021/05/16 01:35:38;;;;;;;8.63;7.20;;;16.10;99.90;;;;;;5116467;28;20460;-72
2021/05/16 01:38:06;;;;;;;7.22;6.00;;;16.10;99.90;;;;;;5098187;28;20030;-71
2021/05/16 01:40:32;;;;;;;7.25;6.03;;;16.00;99.90;;;;;;5116431;28;20016;-72
2021/05/16 01:42:59;;;;;;;7.97;6.22;;;16.00;99.90;;;;;;5116465;28;20533;-72
2021/05/16 01:45:29;;;;;;;9.32;6.45;;;16.00;99.90;;;;;;5116214;28;20027;-71
2021/05/16 01:47:57;;;;;;;9.10;5.47;;;16.00;99.90;;;;;;5115412;28;20019;-71
2021/05/16 01:50:29;;;;;;;6.45;5.65;;;16.10;99.90;;;;;;5116228;28;20022;-72
2021/05/16 01:52:55;;;;;;;9.60;5.63;;;16.10;99.90;;;;;;5116247;28;20463;-72
2021/05/16 01:55:21;;;;;;;9.50;5.40;;;16.10;99.90;;;;;;5116381;28;20055;-72
2021/05/16 01:57:48;;;;;;;7.85;5.75;;;16.10;99.90;;;;;;5116041;28;20027;-71
2021/05/16 02:00:27;;;;;;;5.93;5.32;;;16.10;99.90;;;;;;5116001;28;20026;-72
2021/05/16 02:02:54;;;;;;;5.22;4.70;;;16.10;99.90;;;;;;5097621;28;20106;-71
2021/05/16 02:05:20;;;;;;;7.50;5.13;;;16.20;99.90;;;;;;5115807;28;20019;-71
2021/05/16 02:07:51;;;;;;;6.47;5.15;;;16.20;99.90;;;;;;5115872;28;20523;-71
2021/05/16 02:10:18;;;;;;;7.90;5.32;;;16.20;99.90;;;;;;5115790;28;20069;-71
2021/05/16 02:12:45;;;;;;;7.75;5.75;;;16.20;99.90;;;;;;5097232;28;20466;-71
2021/05/16 02:15:11;;;;;;;6.10;5.50;;;16.20;99.90;;;;;;5115468;28;20023;-71
2021/05/16 02:17:40;;;;;;;6.07;5.47;;;16.20;99.90;;;;;;5115690;28;20024;-72
2021/05/16 02:20:11;;;;;;;5.70;5.18;;;16.20;99.90;;;;;;5115365;28;20517;-71
2021/05/16 02:22:37;;;;;;;5.68;5.18;;;16.20;99.90;;;;;;5115394;28;20024;-71
2021/05/16 02:25:05;;;;;;;10.95;5.70;;;16.20;99.90;;;;;;5115458;28;20413;-71
2021/05/16 02:27:31;;;;;;;7.20;5.72;;;16.20;99.90;;;;;;5115728;28;20062;-71
2021/05/16 02:29:57;;;;;;;7.10;5.85;;;16.10;99.90;;;;;;5115417;28;20023;-71
2021/05/16 02:32:23;;;;;;;9.90;6.28;;;16.10;99.90;;;;;;5097050;28;20020;-71
2021/05/16 02:34:49;;;;;;;6.40;5.80;;;16.10;99.90;;;;;;5115405;28;20493;-71
2021/05/16 02:37:15;;;;;;;6.78;6.10;;;16.10;99.90;;;;;;5115299;28;20062;-71
2021/05/16 02:39:41;;;;;;;6.78;5.80;;;16.10;99.90;;;;;;5097066;28;20026;-71
2021/05/16 02:42:08;;;;;;;6.55;5.95;;;16.10;99.90;;;;;;5115217;28;20023;-71
2021/05/16 02:44:34;;;;;;;8.55;6.32;;;16.00;99.90;;;;;;5096779;28;20344;-71
2021/05/16 02:47:02;;;;;;;6.55;5.85;;;16.00;99.90;;;;;;5115112;28;20028;-71
2021/05/16 02:49:29;;;;;;;7.07;6.38;;;16.00;99.90;;;;;;5115052;28;20042;-71
2021/05/16 02:51:55;;;;;;;6.57;5.10;;;16.00;99.90;;;;;;5096716;28;20019;-71
2021/05/16 02:54:21;;;;;;;7.65;5.88;;;16.00;99.90;;;;;;5115298;28;20095;-71
2021/05/16 02:56:47;;;;;;;7.88;6.10;;;16.00;99.90;;;;;;5114912;28;20435;-71
2021/05/16 02:59:13;;;;;;;6.28;5.68;;;15.90;99.90;;;;;;5114874;28;20047;-71
2021/05/16 03:01:39;;;;;;;5.88;5.28;;;16.00;99.90;;;;;;5096526;28;20067;-71
2021/05/16 03:04:05;;;;;;;6.10;4.85;;;15.90;99.90;;;;;;5096467;28;20039;-71
2021/05/16 03:06:31;;;;;;;6.32;5.35;;;15.90;99.90;;;;;;5114989;28;20024;-71
2021/05/16 03:08:57;;;;;;;6.07;5.38;;;15.90;99.90;;;;;;5096077;28;20451;-71
2021/05/16 03:11:23;;;;;;;5.72;5.22;;;15.90;99.90;;;;;;5114635;28;20030;-71
2021/05/16 03:13:49;;;;;;;7.10;5.15;;;15.90;99.90;;;;;;5114155;28;20054;-71
2021/05/16 03:16:15;;;;;;;7.22;5.93;;;15.90;99.90;;;;;;5096214;28;20016;-71
2021/05/16 03:18:41;;;;;;;7.28;5.35;;;15.90;99.90;;;;;;5096219;28;20015;-71
2021/05/16 03:21:07;;;;;;;7.07;5.10;;;16.00;99.90;;;;;;5114442;28;20103;-71
2021/05/16 03:23:33;;;;;;;8.30;5.65;;;16.00;99.90;;;;;;5095735;28;20024;-73
2021/05/16 03:26:01;;;;;;;5.82;5.10;;;16.00;99.90;;;;;;5114290;28;20031;-70
2021/05/16 03:28:31;;;;;;;5.70;4.90;;;16.00;99.90;;;;;;5114288;28;20027;-71
2021/05/16 03:30:57;;;;;;;5.80;5.28;;;16.00;99.90;;;;;;5114244;28;20054;-70
2021/05/16 03:33:23;;;;;;;5.97;5.32;;;16.00;99.90;;;;;;5114264;28;20047;-70
2021/05/16 03:35:49;;;;;;;9.15;5.90;;;16.00;99.90;;;;;;5114191;28;20106;-71
2021/05/16 03:38:16;;;;;;;8.95;6.00;;;15.90;99.90;;;;;;5114186;28;20024;-71
2021/05/16 03:40:42;;;;;;;8.98;5.65;;;15.90;99.90;;;;;;5095770;28;20023;-70
2021/05/16 03:43:08;;;;;;;6.70;5.97;;;15.80;99.90;;;;;;5113819;28;20051;-70
2021/05/16 03:45:34;;;;;;;5.90;5.30;;;15.80;99.90;;;;;;5095695;28;20030;-71
2021/05/16 03:48:00;;;;;;;7.57;6.22;;;15.80;99.90;;;;;;5095359;28;20024;-70
2021/05/16 03:50:26;;;;;;;7.40;6.22;;;15.80;99.90;;;;;;5095646;28;20294;-71
2021/05/16 03:52:52;;;;;;;7.47;6.70;;;15.80;99.90;;;;;;5113903;28;20080;-71
2021/05/16 03:55:19;;;;;;;9.25;5.97;;;15.80;99.90;;;;;;5113942;28;20023;-71
2021/05/16 03:57:46;;;;;;;9.60;5.93;;;15.80;99.90;;;;;;5095541;28;20110;-70
2021/05/16 04:00:12;;;;;;;6.68;6.07;;;15.90;99.90;;;;;;5113839;28;20027;-70
2021/05/16 04:02:39;;;;;;;9.32;6.70;;;15.90;99.90;;;;;;5114080;28;20039;-70
2021/05/16 04:05:05;;;;;;;6.43;5.40;;;15.90;99.90;;;;;;5113724;28;20024;-69
2021/05/16 04:07:31;;;;;;;7.72;6.88;;;15.90;99.90;;;;;;5113372;28;20364;-69
2021/05/16 04:09:57;;;;;;;7.22;5.97;;;15.90;99.90;;;;;;5095274;28;20028;-70
2021/05/16 04:12:22;;;;;;;6.78;6.13;;;15.90;99.90;;;;;;5113206;28;20048;-69
2021/05/16 04:14:50;;;;;;;6.85;6.10;;;15.90;99.90;;;;;;5113321;28;20450;-69
2021/05/16 04:17:17;;;;;;;8.35;7.35;;;15.90;99.90;;;;;;5113573;28;20034;-71
2021/05/16 04:19:43;;;;;;;9.63;7.32;;;16.00;99.90;;;;;;5113506;28;20016;-70
2021/05/16 04:22:09;;;;;;;11.25;7.80;;;16.00;99.90;;;;;;5094980;28;20019;-71
2021/05/16 04:24:35;;;;;;;8.93;6.72;;;15.90;99.90;;;;;;5094947;28;20035;-71
2021/05/16 04:27:01;;;;;;;10.02;7.82;;;16.00;99.90;;;;;;5113288;28;20016;-71
2021/05/16 04:29:27;;;;;;;7.93;7.05;;;16.00;99.90;;;;;;5113425;28;20106;-70
2021/05/16 04:31:52;;;;;;;9.75;7.28;;;16.00;99.90;;;;;;5113725;28;20069;-70
2021/05/16 04:34:18;;;;;;;10.63;7.25;;;16.10;99.90;;;;;;5095165;28;20081;-71
2021/05/16 04:36:44;;;;;;;9.07;7.95;;;16.10;99.90;;;;;;5113721;28;20364;-69
2021/05/16 04:39:11;;;;;;;9.55;7.07;;;16.20;99.90;;;;;;5094600;28;20023;-71
2021/05/16 04:41:37;;;;;;;9.38;7.45;;;16.20;99.90;;;;;;5113060;28;20027;-71
2021/05/16 04:44:03;;;;;;;9.80;8.50;;;16.20;99.90;;;;;;5113266;28;20028;-70
2021/05/16 04:46:29;;;;;;;8.73;7.82;;;16.20;99.90;;;;;;5113366;28;20032;-70
2021/05/16 04:48:56;;;;;;;7.95;6.97;;;16.20;99.90;;;;;;5113363;28;20165;-71
2021/05/16 04:51:21;;;;;;;9.52;8.45;;;16.30;99.90;;;;;;5113285;28;20024;-71
2021/05/16 04:53:47;;;;;;;9.00;7.25;;;16.30;99.90;;;;;;5113495;28;20035;-71
2021/05/16 04:56:13;;;;;;;8.90;6.80;;;16.40;99.90;;;;;;5094924;28;20077;-71
2021/05/16 04:58:39;;;;;;;9.77;7.25;;;16.40;99.90;;;;;;5094919;28;20519;-71
2021/05/16 05:01:05;;;;;;;7.15;6.45;;;16.40;99.90;;;;;;5113196;28;20044;-71
2021/05/16 05:03:33;;;;;;;8.20;7.40;;;16.50;99.90;;;;;;5113167;28;20072;-71
2021/05/16 05:05:59;;;;;;;8.60;7.53;;;16.50;99.90;;;;;;5094931;28;20024;-71
2021/05/16 05:08:26;;;;;;;8.50;7.70;;;16.50;99.90;;;;;;5094809;28;20043;-71
2021/05/16 05:10:52;;;;;;;10.60;7.47;;;16.50;99.90;;;;;;5113166;28;20063;-71
2021/05/16 05:13:19;;;;;;;9.02;7.80;;;16.50;99.90;;;;;;5113064;28;20040;-70
2021/05/16 05:15:45;;;;;;;8.60;7.22;;;16.50;99.90;;;;;;5094727;28;20020;-71
2021/05/16 05:18:11;;;;;;;8.68;7.35;;;16.60;99.90;;;;;;5113030;28;20027;-72
2021/05/16 05:20:37;;;;;;;13.07;7.43;;;16.60;99.90;;;;;;5113015;28;20364;-71
2021/05/16 05:23:03;;;;;;;8.60;7.72;;;16.60;99.90;;;;;;5113875;28;20047;-70
2021/05/16 05:25:29;;;;;;;12.40;7.63;;;16.70;99.90;;;;;;5116684;28;20027;-71
2021/05/16 05:27:55;;;;;;;9.20;7.47;;;16.70;99.90;;;;;;5116564;28;20020;-71
2021/05/16 05:30:23;;;;;;;11.90;8.50;;;16.70;99.90;;;;;;5116422;28;20054;-71
2021/05/16 05:32:49;;;;;;;7.97;7.10;;;16.80;99.90;;;;;;5097694;28;20020;-70
2021/05/16 05:35:15;;;;;;;10.00;7.80;;;16.80;99.90;;;;;;5097626;28;20031;-72
2021/05/16 05:37:42;;;;;;;9.65;7.32;;;16.80;99.90;;;;;;5097425;28;20015;-70
2021/05/16 05:40:08;;;;;;;9.55;7.00;;;16.80;99.90;;;;;;5115877;28;20027;-70
2021/05/16 05:42:34;;;;;;;8.45;7.57;;;16.80;99.90;;;;;;5098046;28;20020;-71
2021/05/16 05:45:00;;;;;;;8.38;7.05;;;16.80;99.90;;;;;;5116019;28;20366;-71
2021/05/16 05:47:26;;;;;;;7.22;6.40;;;16.90;99.90;;;;;;5116021;28;20034;-70
2021/05/16 05:49:53;;;;;;;10.23;5.95;;;16.90;99.90;;;;;;5116227;28;20444;-71
2021/05/16 05:52:19;;;;;;;9.20;6.18;;;16.90;99.90;;;;;;5116241;28;20035;-71
2021/05/16 05:54:44;;;;;;;7.75;6.40;;;16.90;99.90;;;;;;5116188;28;20031;-70
2021/05/16 05:57:10;;;;;;;7.13;6.07;;;16.90;99.90;;;;;;5097785;28;20040;-71
2021/05/16 05:59:36;;;;;;;8.43;6.18;;;16.90;99.90;;;;;;5115798;28;20505;-72
2021/05/16 06:02:03;;;;;;;8.30;7.60;;;17.00;99.90;;;;;;5097655;28;20019;-71
2021/05/16 06:04:30;;;;;;;12.10;7.72;;;17.00;99.90;;;;;;5115956;28;20024;-70
2021/05/16 06:06:56;;;;;;;11.30;9.23;;;17.00;99.90;;;;;;5115935;28;20031;-70
2021/05/16 06:09:22;;;;;;;8.68;6.78;;;17.10;99.90;;;;;;5115565;28;20016;-71
2021/05/16 06:11:48;;;;;;;6.32;5.10;;;17.00;99.90;;;;;;5115595;28;20019;-70
2021/05/16 06:14:14;;;;;;;6.05;5.45;;;17.10;99.90;;;;;;5115843;28;20149;-71
2021/05/16 06:16:40;;;;;;;5.05;4.43;;;17.20;99.90;;;;;;5097382;28;20031;-71
2021/05/16 06:19:06;;;;;;;5.63;4.22;;;17.20;99.90;;;;;;5097456;28;20024;-70
2021/05/16 06:21:32;;;;;;;6.22;4.63;;;17.20;99.90;;;;;;5092713;28;20020;-69
2021/05/16 06:24:15;;;;;;;5.30;4.80;;;17.30;99.90;;;;;;5096854;28;20038;-69
2021/05/16 06:26:42;;;;;;;6.70;5.07;;;17.30;99.90;;;;;;5115167;28;20035;-70
2021/05/16 06:29:12;;;;;;;5.35;4.80;;;17.40;99.90;;;;;;5115230;28;20092;-69
2021/05/16 06:31:39;;;;;;;7.22;5.63;;;17.50;99.90;;;;;;5096885;28;20027;-69
2021/05/16 06:34:05;;;;;;;6.35;5.75;;;17.60;99.90;;;;;;5114931;28;20032;-69
2021/05/16 06:36:31;;;;;;;10.18;8.02;;;17.70;99.90;;;;;;5115463;28;20019;-70
2021/05/16 06:38:58;;;;;;;12.52;8.95;;;18.00;99.90;;;;;;5114975;28;20410;-70
2021/05/16 06:41:24;;;;;;;9.88;8.18;;;18.10;99.90;;;;;;5114489;28;20444;-71
2021/05/16 06:43:51;;;;;;;11.88;8.98;;;18.20;99.90;;;;;;5114149;28;20032;-70
2021/05/16 06:46:17;;;;;;;8.90;6.65;;;18.30;99.90;;;;;;5096744;28;20589;-69
2021/05/16 06:48:43;;;;;;;7.53;6.30;;;18.30;99.90;;;;;;5096690;28;20023;-69
2021/05/16 06:51:10;;;;;;;7.80;6.00;;;18.30;99.90;;;;;;5114987;28;20022;-69
2021/05/16 06:53:36;;;;;;;4.60;4.20;;;18.30;99.90;;;;;;5114915;28;20031;-71
2021/05/16 06:56:02;;;;;;;5.60;4.68;;;18.30;99.90;;;;;;5114920;28;20024;-70
2021/05/16 06:58:28;;;;;;;6.60;5.88;;;18.20;99.90;;;;;;5114583;28;20472;-70
2021/05/16 07:00:54;;;;;;;5.53;4.22;;;18.10;99.90;;;;;;5096502;28;20069;-71
2021/05/16 07:03:20;;;;;;;5.47;3.25;;;17.90;99.90;;;;;;5114667;28;20411;-69
2021/05/16 07:05:46;;;;;;;5.68;3.30;;;17.90;99.90;;;;;;5114569;28;20030;-70
2021/05/16 07:08:12;;;;;;;4.93;3.47;;;18.00;99.90;;;;;;5114651;28;20061;-70
2021/05/16 07:10:38;;;;;;;4.57;4.15;;;18.10;99.90;;;;;;5114527;28;20055;-69
2021/05/16 07:13:04;;;;;;;5.57;3.75;;;18.20;99.90;;;;;;5114386;28;20813;-70
2021/05/16 07:15:30;;;;;;;3.55;3.10;;;18.30;99.90;;;;;;5114804;28;20024;-69
2021/05/16 07:17:56;;;;;;;1.40;1.30;;;18.50;99.90;;;;;;5114644;28;20494;-71
2021/05/16 07:20:22;;;;;;;3.72;1.00;;;18.40;99.90;;;;;;5114425;28;20024;-69
2021/05/16 07:22:49;;;;;;;1.40;1.15;;;18.40;99.90;;;;;;5114331;28;20027;-69
2021/05/16 07:25:17;;;;;;;2.05;1.70;;;18.50;99.90;;;;;;5114281;28;20024;-68
2021/05/16 07:27:44;;;;;;;2.20;1.20;;;18.50;99.90;;;;;;5114028;28;20034;-70
2021/05/16 07:30:11;;;;;;;2.38;1.30;;;18.50;99.90;;;;;;5114318;28;20019;-71
2021/05/16 07:32:37;;;;;;;2.40;0.95;;;18.50;99.90;;;;;;5114517;28;20042;-69
2021/05/16 07:35:04;;;;;;;2.60;1.40;;;18.60;99.90;;;;;;5114261;28;20023;-69
2021/05/16 07:37:29;;;;;;;1.38;1.27;;;18.80;99.90;;;;;;5095711;28;20527;-70
2021/05/16 07:39:57;;;;;;;1.30;1.20;;;18.80;99.90;;;;;;5113816;28;20110;-70
2021/05/16 07:42:23;;;;;;;3.00;1.00;;;18.80;99.90;;;;;;5113935;28;20073;-70
2021/05/16 07:44:49;;;;;;;2.60;0.80;;;18.70;99.90;;;;;;5113487;28;20073;-70
2021/05/16 07:47:15;;;;;;;1.65;1.30;;;18.60;99.90;;;;;;5113500;28;20023;-70
2021/05/16 07:49:40;;;;;;;3.60;1.08;;;18.50;99.90;;;;;;5113883;28;20409;-70
2021/05/16 07:52:06;;;;;;;1.55;1.30;;;18.50;99.90;;;;;;5095694;28;20035;-70
2021/05/16 07:54:32;;;;;;;0.90;0.90;;;18.50;99.90;;;;;;5095651;28;20054;-70
2021/05/16 07:57:00;;;;;;;1.75;1.10;;;18.40;99.90;;;;;;5095642;28;20514;-69
2021/05/16 07:59:26;;;;;;;3.70;1.63;;;18.50;99.90;;;;;;5095041;28;20026;-70
2021/05/16 08:01:52;;;;;;;2.45;1.13;;;18.50;99.90;;;;;;5113780;28;20019;-70
2021/05/16 08:04:18;;;;;;;1.50;1.40;;;18.60;99.90;;;;;;5095374;28;20032;-70
2021/05/16 08:06:44;;;;;;;1.95;1.80;;;18.70;99.90;;;;;;5095491;28;20024;-70
2021/05/16 08:09:10;;;;;;;1.10;1.10;;;18.80;99.90;;;;;;5113448;28;20452;-69
2021/05/16 08:11:35;;;;;;;3.28;1.48;;;19.00;99.90;;;;;;5108659;28;20049;-70
2021/05/16 08:14:02;;;;;;;1.80;1.50;;;19.20;99.90;;;;;;5093377;28;20036;-69
2021/05/16 08:16:30;;;;;;;1.50;1.40;;;19.20;98.80;;;;;;5093274;28;20040;-70
2021/05/16 08:18:57;;;;;;;2.35;1.30;;;19.30;98.30;;;;;;5092884;28;20020;-70
2021/05/16 08:21:23;;;;;;;1.65;1.30;;;19.50;99.90;;;;;;5093241;28;20030;-69
2021/05/16 08:23:49;;;;;;;2.45;1.20;;;19.50;99.70;;;;;;5092973;28;20036;-70
2021/05/16 08:26:14;;;;;;;3.53;1.55;;;19.50;99.90;;;;;;5093270;28;20033;-70
2021/05/16 08:28:40;;;;;;;3.53;1.33;;;19.40;99.70;;;;;;5091865;28;20463;-69
2021/05/16 08:31:06;;;;;;;4.13;1.45;;;19.40;99.00;;;;;;5093238;28;20050;-70
2021/05/16 08:33:32;;;;;;;1.42;1.10;;;19.40;99.50;;;;;;5091702;28;20020;-70
2021/05/16 08:35:58;;;;;;;3.55;1.27;;;19.40;99.00;;;;;;5093097;28;20047;-70
2021/05/16 08:38:24;;;;;;;0.90;0.90;;;19.50;98.50;;;;;;5091800;28;20027;-70
2021/05/16 08:40:50;;;;;;;1.63;1.00;;;19.40;98.10;;;;;;5091409;28;20024;-70
2021/05/16 08:43:16;;;;;;;1.25;0.73;;;19.40;99.30;;;;;;5091732;28;20111;-70
2021/05/16 08:45:42;;;;;;;2.15;1.20;;;19.30;97.80;;;;;;5091549;28;20028;-70
2021/05/16 08:48:08;;;;;;;1.30;1.10;;;19.30;98.70;;;;;;5091673;28;20020;-70
2021/05/16 08:50:34;;;;;;;1.40;1.30;;;19.10;98.10;;;;;;5092934;28;20044;-70
2021/05/16 08:53:00;;;;;;;1.42;1.02;;;19.00;98.80;;;;;;5091582;28;20043;-69
2021/05/16 08:55:29;;;;;;;0.98;0.90;;;18.90;99.90;;;;;;5093236;28;20465;-70
2021/05/16 08:57:55;;;;;;;2.17;1.60;;;18.80;98.40;;;;;;5094957;28;20035;-71
2021/05/16 09:00:24;;;;;;;2.75;1.55;;;18.70;99.50;;;;;;5095303;28;20024;-70
2021/05/16 09:03:08;;;;;;;1.55;1.33;;;18.60;99.40;;;;;;5096413;28;20417;-71
2021/05/16 09:05:39;;;;;;;2.33;1.23;;;18.60;99.40;;;;;;5095358;28;20024;-71
2021/05/16 09:08:26;;;;;;;1.20;1.10;;;18.50;98.70;;;;;;5095328;28;20016;-70
2021/05/16 09:10:58;;;;;;;2.35;1.48;;;18.50;98.60;;;;;;5096991;28;20062;-71
2021/05/16 09:13:32;;;;;;;1.52;1.42;;;18.50;99.20;;;;;;5096208;28;20047;-70
2021/05/16 09:16:00;;;;;;;2.25;1.55;;;18.70;99.30;;;;;;5095218;28;20085;-70
2021/05/16 09:18:46;;;;;;;4.95;1.45;;;18.80;99.60;;;;;;5096439;28;20027;-71
2021/05/16 09:21:25;;;;;;;2.25;1.65;;;19.00;98.80;;;;;;5091590;28;20031;-73
2021/05/16 09:24:13;;;;;;;4.32;2.35;;;19.20;98.90;;;;;;5073350;28;20040;-70
2021/05/16 09:26:58;;;;;;;1.92;1.73;;;19.50;99.00;;;;;;5075109;28;20162;-69
2021/05/16 09:29:32;;;;;;;2.65;1.50;;;19.80;98.40;;;;;;5083594;28;20411;-72
2021/05/16 09:32:01;;;;;;;1.58;1.40;;;19.90;97.70;;;;;;5096264;28;20020;-72
2021/05/16 09:34:28;;;;;;;3.78;1.85;;;19.90;98.40;;;;;;5094899;28;20368;-73
2021/05/16 09:36:55;;;;;;;1.23;1.20;;;20.50;98.40;;;;;;5096197;28;20024;-72
2021/05/16 09:39:31;;;;;;;1.55;1.45;;;20.40;96.90;;;;;;5096105;28;20016;-70
2021/05/16 09:42:18;;;;;;;2.55;1.42;;;;;;;;;;5095898;28;20020;-72
2021/05/16 09:44:49;;;;;;;1.88;1.67;;;20.90;95.60;;;;;;5094404;28;20028;-72
2021/05/16 09:47:17;;;;;;;2.28;1.40;;;21.00;94.80;;;;;;5095169;28;20024;-69
2021/05/16 09:50:04;;;;;;;2.33;1.60;;;21.10;96.30;;;;;;5095559;28;20020;-72
2021/05/16 09:52:36;;;;;;;1.88;1.40;;;21.80;96.80;;;;;;5095635;28;20066;-71
2021/05/16 09:55:12;;;;;;;2.80;1.63;;;22.30;96.30;;;;;;5094015;28;20098;-73
2021/05/16 09:57:43;;;;;;;2.25;1.40;;;22.80;94.50;;;;;;5095258;28;20031;-72
2021/05/16 10:00:11;;;;;;;2.58;1.70;;;22.80;93.50;;;;;;5095682;28;20016;-72
2021/05/16 10:02:38;;;;;;;2.30;1.75;;;22.70;91.40;;;;;;5095468;28;20082;-73
2021/05/16 10:05:07;;;;;;;3.22;1.65;;;22.30;92.00;;;;;;5094079;28;20028;-72
2021/05/16 10:07:34;;;;;;;2.28;1.70;;;22.30;94.10;;;;;;5095615;28;20023;-73
2021/05/16 10:10:00;;;;;;;2.38;1.60;;;22.80;94.30;;;;;;5094737;28;20390;-73
2021/05/16 10:12:26;;;;;;;3.58;1.60;;;23.10;93.00;;;;;;5095225;28;20048;-72
2021/05/16 10:15:08;;;;;;;2.58;1.67;;;23.00;92.10;;;;;;5093995;28;20039;-72
2021/05/16 10:17:39;;;;;;;2.70;1.88;;;23.00;92.00;;;;;;5093972;28;20020;-73
2021/05/16 10:20:16;;;;;;;5.90;2.10;;;23.60;93.10;;;;;;5095329;28;20091;-72
2021/05/16 10:22:52;;;;;;;2.70;1.80;;;23.90;91.80;;;;;;5095493;28;20252;-71
2021/05/16 10:25:42;;;;;;;2.10;1.52;;;24.10;89.50;;;;;;5095157;28;20032;-72
2021/05/16 10:28:13;;;;;;;2.75;1.98;;;23.60;89.10;;;;;;5095174;28;20477;-70
2021/05/16 10:30:41;;;;;;;;;;;23.50;91.10;;;;;;5095527;28;20020;-70
2021/05/16 10:33:27;;;;;;;1.52;1.42;;;23.50;91.10;;;;;;5094745;28;20298;-71
2021/05/16 10:35:53;;;;;;;2.50;1.50;;;23.10;90.80;;;;;;5094800;28;20024;-69
2021/05/16 10:38:35;;;;;;;1.63;1.33;;;23.00;90.70;;;;;;5094777;28;20483;-71
2021/05/16 10:41:25;;;;;;;1.65;1.55;;;23.00;91.40;;;;;;5091673;28;20062;-70
2021/05/16 10:43:51;;;;;;;2.65;2.20;;;23.00;91.90;;;;;;5092368;28;20021;-70
2021/05/16 10:46:39;;;;;;;2.58;1.80;;;22.80;92.90;;;;;;5094096;28;20103;-71
2021/05/16 10:49:25;;;;;;;2.30;1.98;;;22.30;92.70;;;;;;5092743;28;20077;-70
2021/05/16 10:51:52;;;;;;;2.45;1.88;;;22.10;94.00;;;;;;5094720;28;20449;-70
2021/05/16 10:54:29;;;;;;;4.93;2.10;;;22.00;94.50;;;;;;5094218;28;20452;-72
2021/05/16 10:57:18;;;;;;;2.63;2.10;;;21.80;94.70;;;;;;5094580;28;20027;-72
2021/05/16 10:59:45;;;;;;;2.25;2.05;;;21.60;95.30;;;;;;5093230;28;20023;-72
2021/05/16 11:02:11;;;;;;;3.35;2.08;;;21.40;94.70;;;;;;5092986;28;20414;-72
2021/05/16 11:04:49;;;;;;;2.08;1.90;;;;;;;;;;5094483;28;20552;-69
2021/05/16 11:07:33;;;;;;;2.33;1.77;;;21.10;95.30;;;;;;5094440;28;20107;-71
2021/05/16 11:10:29;;;;;;;7.00;2.30;;;21.10;96.60;;;;;;5094055;28;20364;-72
2021/05/16 11:13:18;;;;;;;3.25;2.63;;;21.00;96.70;;;;;;5092712;28;20063;-71
2021/05/16 11:15:48;;;;;;;2.83;2.30;;;20.70;97.60;;;;;;5094233;28;20024;-70
2021/05/16 11:18:17;;;;;;;4.65;2.40;;;20.60;98.10;;;;;;5092638;28;20020;-71
2021/05/16 11:20:44;;;;;;;3.85;2.40;;;20.60;98.40;;;;;;5091883;28;20377;-70
2021/05/16 11:23:24;;;;;;;3.10;2.80;;;20.60;98.80;;;;;;5092721;28;20048;-69
2021/05/16 11:25:56;;;;;;;3.35;2.70;;;20.60;98.70;;;;;;5092654;28;20040;-69
2021/05/16 11:28:23;;;;;;;3.58;2.15;;;20.70;98.10;;;;;;5094083;28;20016;-73
2021/05/16 11:30:50;;;;;;;2.65;2.45;;;20.80;98.30;;;;;;5092701;28;20065;-70
2021/05/16 11:33:33;;;;;;;2.88;2.22;;;20.80;98.60;;;;;;5093860;28;20048;-71
2021/05/16 11:36:20;;;;;;;2.55;2.35;;;20.90;97.50;;;;;;5094074;28;20024;-70
2021/05/16 11:38:48;;;;;;;3.60;2.20;;;24.60;92.90;;;;;;5092599;28;20126;-70
2021/05/16 11:41:33;;;;;;;2.25;2.00;;;24.60;93.10;;;;;;5093813;28;20018;-69
2021/05/16 11:44:01;;;;;;;3.90;1.80;;;26.90;87.50;;;;;;5093697;28;20073;-69
2021/05/16 11:46:31;;;;;;;2.53;2.10;;;27.10;80.70;;;;;;5093668;28;20059;-71
2021/05/16 11:48:57;;;;;;;1.40;1.30;;;26.30;77.80;;;;;;5093606;28;20133;-70
2021/05/16 11:51:24;;;;;;;1.40;1.30;;;25.90;78.00;;;;;;5093481;28;20024;-70
2021/05/16 11:53:54;;;;;;;1.60;1.50;;;25.60;75.70;;;;;;5092340;28;20485;-69
2021/05/16 11:56:22;;;;;;;2.22;1.30;;;;;;;;;;5092312;28;20077;-69
2021/05/16 11:58:50;;;;;;;1.30;1.20;;;;;;;;;;5093543;28;20119;-71
2021/05/16 12:01:17;;;;;;;1.00;1.00;;;27.30;72.20;;;;;;5091992;28;20176;-70
2021/05/16 12:04:16;;;;;;;1.52;1.20;;;27.00;72.20;;;;;;5092855;28;20024;-70
2021/05/16 12:06:52;;;;;;;1.85;1.10;;;26.30;71.30;;;;;;5093214;28;20027;-73
2021/05/16 12:09:23;;;;;;;1.20;1.20;;;25.80;72.40;;;;;;5091949;28;20115;-70
2021/05/16 12:11:51;;;;;;;1.48;1.10;;;;;;;;;;5093095;28;20040;-70
2021/05/16 12:14:27;;;;;;;1.20;1.10;;;26.70;68.30;;;;;;5093256;28;20023;-70
2021/05/16 12:16:59;;;;;;;2.38;1.33;;;27.10;69.80;;;;;;5093391;28;20026;-70
2021/05/16 12:19:35;;;;;;;1.95;1.65;;;26.40;69.20;;;;;;5093142;28;20398;-70
2021/05/16 12:22:02;;;;;;;1.63;1.50;;;;;;;;;;5091889;28;20031;-72
2021/05/16 12:24:30;;;;;;;3.38;1.45;;;;;;;;;;5093122;28;20448;-70
2021/05/16 12:26:57;;;;;;;1.40;1.30;;;;;;;;;;5091847;28;20124;-69
2021/05/16 12:29:23;;;;;;;1.50;1.40;;;;;;;;;;5092863;28;20394;-71
2021/05/16 12:31:50;;;;;;;1.58;1.48;;;;;;;;;;5092742;28;20471;-72
2021/05/16 12:34:16;;;;;;;2.20;1.80;;;;;;;;;;5097230;28;20042;-69
2021/05/16 12:36:54;;;;;;;1.02;0.88;;;;;;;;;;5096876;28;20333;-69
2021/05/16 12:39:40;;;;;;;1.58;1.30;;;;;;;;;;5096901;28;20449;-71
2021/05/16 12:42:25;;;;;;;1.95;1.05;;;;;;;;;;5097038;28;20051;-71
2021/05/16 12:44:52;;;;;;;1.05;0.90;;;;;;;;;;5097088;28;20368;-70
2021/05/16 12:47:22;;;;;;;1.23;1.13;;;;;;;;;;5096805;28;20558;-69
2021/05/16 12:49:48;;;;;;;0.88;0.85;;;;;;;;;;5096937;28;20016;-70
2021/05/16 12:52:23;;;;;;;0.98;0.82;;;;;;;;;;5096821;28;20481;-70
2021/05/16 12:54:50;;;;;;;1.55;1.08;;;;;;;;;;5096792;28;20107;-69
2021/05/16 12:57:26;;;;;;;2.05;1.00;;;;;;;;;;5096696;28;20023;-70
2021/05/16 12:59:53;;;;;;;1.17;1.05;;;;;;;;;;5096733;28;20016;-69